createdAt,value
2023-02-16T00:01:18.095Z,45.25
2023-02-16T00:03:45.933Z,44.42
2023-02-16T00:06:16.037Z,47.28
2023-02-16T00:08:45.552Z,44.78
2023-02-16T00:11:39.273Z,46.08
2023-02-16T00:14:10.262Z,47.03
2023-02-16T00:16:38.578Z,44.42
2023-02-16T00:19:46.043Z,45.08
2023-02-16T00:22:13.028Z,45.22
2023-02-16T00:24:40.737Z,45.30
2023-02-16T00:27:16.246Z,46.70
2023-02-16T00:29:45.830Z,46.08
2023-02-16T00:32:13.755Z,46.10
2023-02-16T00:34:42.192Z,47.38
2023-02-16T00:37:12.066Z,48.30
2023-02-16T00:39:41.938Z,45.95
2023-02-16T00:42:15.204Z,45.60
2023-02-16T00:44:45.650Z,47.53
2023-02-16T00:47:35.516Z,47.97
2023-02-16T00:50:07.488Z,45.72
2023-02-16T00:52:42.737Z,45.92
2023-02-16T00:55:13.412Z,46.67
2023-02-16T00:57:45.881Z,45.70
2023-02-16T01:00:15.571Z,47.50
2023-02-16T01:02:47.766Z,45.42
2023-02-16T01:05:15.925Z,45.75
2023-02-16T01:08:01.572Z,46.22
2023-02-16T01:10:48.080Z,45.92
2023-02-16T01:13:15.869Z,48.30
2023-02-16T01:15:44.488Z,47.03
2023-02-16T01:18:17.917Z,47.20
2023-02-16T01:20:46.446Z,48.22
2023-02-16T01:23:13.568Z,47.50
2023-02-16T01:25:42.346Z,46.45
2023-02-16T01:28:22.926Z,47.60
2023-02-16T01:30:51.819Z,47.22
2023-02-16T01:33:19.923Z,46.75
2023-02-16T01:35:47.531Z,45.97
2023-02-16T01:38:19.071Z,46.30
2023-02-16T01:41:22.532Z,49.00
2023-02-16T01:44:01.615Z,45.75
2023-02-16T01:46:38.794Z,48.50
2023-02-16T01:49:05.769Z,46.55
2023-02-16T01:51:48.859Z,45.60
2023-02-16T01:54:44.398Z,48.90
2023-02-16T01:57:23.813Z,47.33
2023-02-16T01:59:55.907Z,46.15
2023-02-16T02:02:33.838Z,50.33
2023-02-16T02:05:27.490Z,47.50
2023-02-16T02:07:58.342Z,47.60
2023-02-16T02:10:54.304Z,48.10
2023-02-16T02:13:37.518Z,46.47
2023-02-16T02:16:05.484Z,46.65
2023-02-16T02:18:33.861Z,47.63
2023-02-16T02:21:39.744Z,48.75
2023-02-16T02:24:46.655Z,44.08
2023-02-16T02:27:31.342Z,47.90
2023-02-16T02:30:16.818Z,46.78
2023-02-16T02:32:55.302Z,47.78
2023-02-16T02:35:45.150Z,48.25
2023-02-16T02:38:37.564Z,48.83
2023-02-16T02:41:45.558Z,48.67
2023-02-16T02:44:17.861Z,47.25
2023-02-16T02:46:45.279Z,47.05
2023-02-16T02:49:13.484Z,45.95
2023-02-16T02:51:43.300Z,47.08
2023-02-16T02:54:52.241Z,46.78
2023-02-16T02:57:53.817Z,45.60
2023-02-16T03:00:42.049Z,47.95
2023-02-16T03:03:27.714Z,46.63
2023-02-16T03:05:57.388Z,46.92
2023-02-16T03:08:28.832Z,47.72
2023-02-16T03:11:32.173Z,48.10
2023-02-16T03:14:08.066Z,45.88
2023-02-16T03:16:42.716Z,47.15
2023-02-16T03:19:32.281Z,47.13
2023-02-16T03:22:19.660Z,48.42
2023-02-16T03:25:06.474Z,47.40
2023-02-16T03:28:00.449Z,46.65
2023-02-16T03:30:29.096Z,45.90
2023-02-16T03:32:56.464Z,49.15
2023-02-16T03:35:24.792Z,47.47
2023-02-16T03:37:52.165Z,47.63
2023-02-16T03:40:29.599Z,47.33
2023-02-16T03:43:06.233Z,47.25
2023-02-16T03:45:36.363Z,49.65
2023-02-16T03:48:03.990Z,49.33
2023-02-16T03:50:31.347Z,47.25
2023-02-16T03:53:07.501Z,47.05
2023-02-16T03:55:53.801Z,47.80
2023-02-16T03:58:23.694Z,46.85
2023-02-16T04:00:52.323Z,46.63
2023-02-16T04:03:19.378Z,47.17
2023-02-16T04:05:47.374Z,46.25
2023-02-16T04:08:14.298Z,45.20
2023-02-16T04:10:41.788Z,45.72
2023-02-16T04:13:09.250Z,47.78
2023-02-16T04:15:36.664Z,47.60
2023-02-16T04:18:03.914Z,45.85
2023-02-16T04:20:34.805Z,47.25
2023-02-16T04:23:03.216Z,46.25
2023-02-16T04:25:30.463Z,44.67
2023-02-16T04:27:57.416Z,46.45
2023-02-16T04:30:27.444Z,45.55
2023-02-16T04:32:55.224Z,45.20
2023-02-16T04:35:22.657Z,47.00
2023-02-16T04:37:49.675Z,47.17
2023-02-16T04:40:18.078Z,46.42
2023-02-16T04:42:46.002Z,47.03
2023-02-16T04:45:14.183Z,44.95
2023-02-16T04:47:41.447Z,44.42
2023-02-16T04:50:10.344Z,45.42
2023-02-16T04:52:38.189Z,47.95
2023-02-16T04:55:07.363Z,46.05
2023-02-16T04:57:34.461Z,46.58
2023-02-16T05:00:01.780Z,46.42
2023-02-16T05:02:28.771Z,45.88
2023-02-16T05:04:56.287Z,46.53
2023-02-16T05:07:23.304Z,45.63
2023-02-16T05:09:51.651Z,47.75
2023-02-16T05:12:37.196Z,47.13
2023-02-16T05:15:05.761Z,46.17
2023-02-16T05:17:32.730Z,46.95
2023-02-16T05:20:01.788Z,45.47
2023-02-16T05:22:28.984Z,46.10
2023-02-16T05:24:56.157Z,46.60
2023-02-16T05:27:25.964Z,48.15
2023-02-16T05:29:53.558Z,45.85
2023-02-16T05:32:21.253Z,46.03
2023-02-16T05:34:48.559Z,48.35
2023-02-16T05:37:17.383Z,45.83
2023-02-16T05:39:45.437Z,46.30
2023-02-16T05:42:12.371Z,46.05
2023-02-16T05:44:39.871Z,47.03
2023-02-16T05:47:07.537Z,46.45
2023-02-16T05:49:34.976Z,45.47
2023-02-16T05:52:02.278Z,46.72
2023-02-16T05:54:29.788Z,44.47
2023-02-16T05:56:56.758Z,44.03
2023-02-16T05:59:24.098Z,44.75
2023-02-16T06:01:52.385Z,46.63
2023-02-16T06:04:21.539Z,43.67
2023-02-16T06:06:48.731Z,45.15
2023-02-16T06:09:16.163Z,45.35
2023-02-16T06:11:43.606Z,46.45
2023-02-16T06:14:14.090Z,46.97
2023-02-16T06:16:43.367Z,42.70
2023-02-16T06:19:11.578Z,41.95
2023-02-16T06:21:39.797Z,45.95
2023-02-16T06:24:09.654Z,43.65
2023-02-16T06:26:37.205Z,44.85
2023-02-16T06:29:05.221Z,44.45
2023-02-16T06:31:35.078Z,43.42
2023-02-16T06:34:04.209Z,45.78
2023-02-16T06:36:31.660Z,44.33
2023-02-16T06:38:58.960Z,45.30
2023-02-16T06:41:31.985Z,43.88
2023-02-16T06:44:00.750Z,42.67
2023-02-16T06:46:28.779Z,40.47
2023-02-16T06:48:56.684Z,43.58
2023-02-16T06:51:24.206Z,44.67
2023-02-16T06:53:51.404Z,44.15
2023-02-16T06:56:18.405Z,43.58
2023-02-16T06:58:45.652Z,42.78
2023-02-16T07:01:12.786Z,43.03
2023-02-16T07:03:40.347Z,44.47
2023-02-16T07:06:07.675Z,42.45
2023-02-16T07:08:35.932Z,42.95
2023-02-16T07:11:03.561Z,41.85
2023-02-16T07:13:31.380Z,42.15
2023-02-16T07:15:58.309Z,42.63
2023-02-16T07:18:25.609Z,40.95
2023-02-16T07:20:52.557Z,41.45
2023-02-16T07:23:20.031Z,41.45
2023-02-16T07:25:47.323Z,42.28
2023-02-16T07:28:14.864Z,41.60
2023-02-16T07:30:42.312Z,38.13
2023-02-16T07:33:10.597Z,39.20
2023-02-16T07:35:38.180Z,41.40
2023-02-16T07:38:06.144Z,40.58
2023-02-16T07:40:33.710Z,39.70
2023-02-16T07:43:02.700Z,41.60
2023-02-16T07:45:30.295Z,42.00
2023-02-16T07:47:57.509Z,40.55
2023-02-16T07:50:24.684Z,39.17
2023-02-16T07:52:52.359Z,38.50
2023-02-16T07:55:19.396Z,37.65
2023-02-16T07:57:49.426Z,39.60
2023-02-16T08:00:17.193Z,39.28
2023-02-16T08:02:45.517Z,40.15
2023-02-16T08:05:13.599Z,38.75
2023-02-16T08:07:41.975Z,37.35
2023-02-16T08:10:09.523Z,38.58
2023-02-16T08:12:37.666Z,38.83
2023-02-16T08:15:05.107Z,40.00
2023-02-16T08:17:32.664Z,39.28
2023-02-16T08:19:59.780Z,39.10
2023-02-16T08:22:27.110Z,36.72
2023-02-16T08:24:54.381Z,39.22
2023-02-16T08:27:23.161Z,37.45
2023-02-16T08:29:50.546Z,38.05
2023-02-16T08:32:18.044Z,37.95
2023-02-16T08:34:45.161Z,36.95
2023-02-16T08:37:13.569Z,37.00
2023-02-16T08:39:41.562Z,36.35
2023-02-16T08:42:11.878Z,37.95
2023-02-16T08:44:40.215Z,36.65
2023-02-16T08:47:09.533Z,36.95
2023-02-16T08:49:36.638Z,36.70
2023-02-16T08:52:05.430Z,39.10
2023-02-16T08:54:33.419Z,35.30
2023-02-16T08:57:02.961Z,37.35
2023-02-16T08:59:30.722Z,34.67
2023-02-16T09:01:59.271Z,36.03
2023-02-16T09:04:29.346Z,37.63
2023-02-16T09:06:58.496Z,38.00
2023-02-16T09:09:26.559Z,37.00
2023-02-16T09:11:53.979Z,36.35
2023-02-16T09:14:21.701Z,36.00
2023-02-16T09:16:49.420Z,34.15
2023-02-16T09:19:20.631Z,34.65
2023-02-16T09:24:18.326Z,33.22
2023-02-16T09:26:45.957Z,34.10
2023-02-16T09:29:14.842Z,34.33
2023-02-16T09:31:44.447Z,32.83
2023-02-16T09:34:21.848Z,35.00
2023-02-16T09:36:50.340Z,33.20
2023-02-16T09:39:17.730Z,34.08
2023-02-16T09:41:54.124Z,33.13
2023-02-16T09:44:33.488Z,33.25
2023-02-16T09:47:05.082Z,32.47
2023-02-16T09:49:37.235Z,31.40
2023-02-16T09:52:13.881Z,34.38
2023-02-16T09:54:51.852Z,31.88
2023-02-16T09:57:25.908Z,34.28
2023-02-16T09:59:58.606Z,33.97
2023-02-16T10:02:55.993Z,29.13
2023-02-16T10:05:36.974Z,32.65
2023-02-16T10:08:14.526Z,31.67
2023-02-16T10:10:50.914Z,32.03
2023-02-16T10:13:32.165Z,31.92
2023-02-16T10:16:01.647Z,31.90
2023-02-16T10:18:34.142Z,32.47
2023-02-16T10:21:07.046Z,32.05
2023-02-16T10:23:46.437Z,31.35
2023-02-16T10:26:16.459Z,29.98
2023-02-16T10:28:55.914Z,31.05
2023-02-16T10:31:39.003Z,27.73
2023-02-16T10:34:18.386Z,29.42
2023-02-16T10:37:10.873Z,31.90
2023-02-16T10:40:06.140Z,30.85
2023-02-16T10:42:44.594Z,31.38
2023-02-16T10:45:15.406Z,31.35
2023-02-16T10:47:45.344Z,30.65
2023-02-16T10:50:25.425Z,31.02
2023-02-16T10:52:58.285Z,30.67
2023-02-16T10:55:26.305Z,29.23
2023-02-16T10:57:57.454Z,29.42
2023-02-16T11:00:58.199Z,31.15
2023-02-16T11:03:30.528Z,30.92
2023-02-16T11:06:14.317Z,30.27
2023-02-16T11:08:49.872Z,28.42
2023-02-16T11:11:18.856Z,28.95
2023-02-16T11:13:57.311Z,30.70
2023-02-16T11:16:25.498Z,30.30
2023-02-16T11:19:08.060Z,29.17
2023-02-16T11:21:46.292Z,29.25
2023-02-16T11:24:31.937Z,30.58
2023-02-16T11:27:05.275Z,29.88
2023-02-16T11:29:32.758Z,29.95
2023-02-16T11:32:07.007Z,29.73
2023-02-16T11:34:43.964Z,29.98
2023-02-16T11:37:13.974Z,27.05
2023-02-16T11:39:49.781Z,27.27
2023-02-16T11:42:28.173Z,27.70
2023-02-16T11:44:57.285Z,27.73
2023-02-16T11:47:31.470Z,26.38
2023-02-16T11:50:21.532Z,27.92
2023-02-16T11:52:54.637Z,25.33
2023-02-16T11:55:27.180Z,26.80
2023-02-16T11:57:56.417Z,26.13
2023-02-16T12:00:24.878Z,25.48
2023-02-16T12:03:01.555Z,26.05
2023-02-16T12:05:35.077Z,26.08
2023-02-16T12:08:22.228Z,26.55
2023-02-16T12:11:10.355Z,28.30
2023-02-16T12:14:19.110Z,25.95
2023-02-16T12:17:00.919Z,26.45
2023-02-16T12:19:40.146Z,25.88
2023-02-16T12:22:32.546Z,25.50
2023-02-16T12:25:09.038Z,24.95
2023-02-16T12:27:39.492Z,26.42
2023-02-16T12:30:26.335Z,26.48
2023-02-16T12:32:57.876Z,26.08
2023-02-16T12:35:47.561Z,25.00
2023-02-16T12:38:52.310Z,23.38
2023-02-16T12:41:19.578Z,25.48
2023-02-16T12:43:58.512Z,27.67
2023-02-16T12:46:38.022Z,25.35
2023-02-16T12:49:17.988Z,26.50
2023-02-16T12:52:04.829Z,26.38
2023-02-16T12:54:40.538Z,25.23
2023-02-16T12:57:20.550Z,24.30
2023-02-16T13:00:03.067Z,26.77
2023-02-16T13:02:40.649Z,24.55
2023-02-16T13:05:18.103Z,26.30
2023-02-16T13:07:49.200Z,22.65
2023-02-16T13:10:24.642Z,24.77
2023-02-16T13:13:00.973Z,24.25
2023-02-16T13:15:30.944Z,25.70
2023-02-16T13:18:03.292Z,23.50
2023-02-16T13:20:30.731Z,25.20
2023-02-16T13:23:22.700Z,25.73
2023-02-16T13:26:01.227Z,25.83
2023-02-16T13:28:31.700Z,25.98
2023-02-16T13:31:25.202Z,25.63
2023-02-16T13:34:40.798Z,24.33
2023-02-16T13:37:52.078Z,26.35
2023-02-16T13:40:32.323Z,29.10
2023-02-16T13:43:13.950Z,24.83
2023-02-16T13:45:47.075Z,27.55
2023-02-16T13:48:22.132Z,27.98
2023-02-16T13:50:59.773Z,28.30
2023-02-16T13:53:40.199Z,27.83
2023-02-16T13:56:28.761Z,26.37
2023-02-16T13:59:19.361Z,26.75
2023-02-16T14:01:50.937Z,28.10
2023-02-16T14:04:24.774Z,28.77
2023-02-16T14:07:17.872Z,29.45
2023-02-16T14:09:47.796Z,30.42
2023-02-16T14:12:20.076Z,30.45
2023-02-16T14:14:58.003Z,29.23
2023-02-16T14:17:29.238Z,29.75
2023-02-16T14:20:25.766Z,29.88
2023-02-16T14:23:00.231Z,30.17
2023-02-16T14:25:31.173Z,31.67
2023-02-16T14:28:02.153Z,30.70
2023-02-16T14:30:51.905Z,31.92
2023-02-16T14:33:24.164Z,31.08
2023-02-16T14:36:00.778Z,30.33
2023-02-16T14:38:29.327Z,30.17
2023-02-16T14:40:57.614Z,32.00
2023-02-16T14:43:31.565Z,32.88
2023-02-16T14:46:28.607Z,31.67
2023-02-16T14:49:14.963Z,30.15
2023-02-16T14:52:03.808Z,30.38
2023-02-16T14:54:49.702Z,30.60
2023-02-16T14:57:23.553Z,32.78
2023-02-16T14:59:58.240Z,30.85
2023-02-16T15:02:38.588Z,28.30
2023-02-16T15:05:22.365Z,31.05
2023-02-16T15:07:56.203Z,28.73
2023-02-16T15:10:27.537Z,29.45
2023-02-16T15:12:57.937Z,30.38
2023-02-16T15:15:43.952Z,29.70
2023-02-16T15:18:21.318Z,29.17
2023-02-16T15:20:53.081Z,30.58
2023-02-16T15:23:23.991Z,29.73
2023-02-16T15:25:58.771Z,29.70
2023-02-16T15:28:32.498Z,28.42
2023-02-16T15:31:06.128Z,30.27
2023-02-16T15:33:37.669Z,29.15
2023-02-16T15:36:13.411Z,29.60
2023-02-16T15:38:57.189Z,30.20
2023-02-16T15:41:33.183Z,31.10
2023-02-16T15:44:03.031Z,30.35
2023-02-16T15:46:43.746Z,31.65
2023-02-16T15:49:21.680Z,30.35
2023-02-16T15:51:49.440Z,30.85
2023-02-16T15:54:28.057Z,31.20
2023-02-16T15:56:58.612Z,31.20
2023-02-16T15:59:50.060Z,32.83
2023-02-16T16:02:24.831Z,31.65
2023-02-16T16:04:56.191Z,30.65
2023-02-16T16:10:15.774Z,30.65
2023-02-16T16:12:44.851Z,30.15
2023-02-16T16:15:22.977Z,31.27
2023-02-16T16:17:52.820Z,32.65
2023-02-16T16:20:44.667Z,32.08
2023-02-16T16:23:14.792Z,32.25
2023-02-16T16:25:44.967Z,32.53
2023-02-16T16:28:34.015Z,35.33
2023-02-16T16:31:12.271Z,33.72
2023-02-16T16:33:59.837Z,33.85
2023-02-16T16:36:53.468Z,36.03
2023-02-16T16:39:26.303Z,33.75
2023-02-16T16:42:19.963Z,35.08
2023-02-16T16:44:56.870Z,34.45
2023-02-16T16:47:26.983Z,34.50
2023-02-16T16:49:56.515Z,35.15
2023-02-16T16:52:44.673Z,36.80
2023-02-16T16:55:27.390Z,37.55
2023-02-16T16:58:15.118Z,36.58
2023-02-16T17:00:42.945Z,36.83
2023-02-16T17:03:15.325Z,33.40
2023-02-16T17:05:44.273Z,38.08
2023-02-16T17:08:11.678Z,38.03
2023-02-16T17:10:41.107Z,35.67
2023-02-16T17:13:13.829Z,36.97
2023-02-16T17:15:59.659Z,35.40
2023-02-16T17:18:26.779Z,35.40
2023-02-16T17:20:54.667Z,36.90
2023-02-16T17:23:23.641Z,37.70
2023-02-16T17:25:51.261Z,38.53
2023-02-16T17:28:20.243Z,37.05
2023-02-16T17:30:47.673Z,36.55
2023-02-16T17:33:14.787Z,38.15
2023-02-16T17:35:43.734Z,35.05
2023-02-16T17:38:19.775Z,37.45
2023-02-16T17:40:49.141Z,34.35
2023-02-16T17:43:17.864Z,36.83
2023-02-16T17:45:45.784Z,35.13
2023-02-16T17:48:18.305Z,34.83
2023-02-16T17:50:46.762Z,35.88
2023-02-16T17:53:19.262Z,38.08
2023-02-16T17:55:49.505Z,35.08
2023-02-16T17:58:16.708Z,35.55
2023-02-16T18:00:45.545Z,36.03
2023-02-16T18:03:12.794Z,36.78
2023-02-16T18:05:40.440Z,37.45
2023-02-16T18:08:08.009Z,35.70
2023-02-16T18:10:43.041Z,39.13
2023-02-16T18:13:11.725Z,39.00
2023-02-16T18:15:42.343Z,37.50
2023-02-16T18:18:10.084Z,36.78
2023-02-16T18:20:37.681Z,38.65
2023-02-16T18:23:05.566Z,39.75
2023-02-16T18:25:33.768Z,40.83
2023-02-16T18:28:01.055Z,41.63
2023-02-16T18:30:28.467Z,40.63
2023-02-16T18:32:55.593Z,40.63
2023-02-16T18:35:22.931Z,41.17
2023-02-16T18:37:50.080Z,39.35
2023-02-16T18:40:19.996Z,40.67
2023-02-16T18:42:47.608Z,40.97
2023-02-16T18:45:15.108Z,39.60
2023-02-16T18:47:44.476Z,40.60
2023-02-16T18:50:12.620Z,41.70
2023-02-16T18:52:42.491Z,38.47
2023-02-16T18:55:11.394Z,39.55
2023-02-16T18:57:38.636Z,39.53
2023-02-16T19:00:07.877Z,39.97
2023-02-16T19:02:35.668Z,39.63
2023-02-16T19:05:03.890Z,36.50
2023-02-16T19:07:30.812Z,37.60
2023-02-16T19:09:58.096Z,39.00
2023-02-16T19:12:25.461Z,36.97
2023-02-16T19:14:52.768Z,37.25
2023-02-16T19:17:19.737Z,37.50
2023-02-16T19:19:46.967Z,36.47
2023-02-16T19:22:13.941Z,35.35
2023-02-16T19:24:41.405Z,36.05
2023-02-16T19:27:08.391Z,35.63
2023-02-16T19:29:35.712Z,38.53
2023-02-16T19:32:03.058Z,39.20
2023-02-16T19:34:30.368Z,36.70
2023-02-16T19:36:57.324Z,37.75
2023-02-16T19:39:24.493Z,39.42
2023-02-16T19:41:51.650Z,38.40
2023-02-16T19:44:18.980Z,36.60
2023-02-16T19:46:45.919Z,36.20
2023-02-16T19:49:15.127Z,35.15
2023-02-16T19:51:42.949Z,36.25
2023-02-16T19:54:10.256Z,34.50
2023-02-16T19:56:40.482Z,34.35
2023-02-16T19:59:08.720Z,34.50
2023-02-16T20:01:36.400Z,33.92
2023-02-16T20:04:04.048Z,33.63
2023-02-16T20:06:34.421Z,35.80
2023-02-16T20:09:01.708Z,33.90
2023-02-16T20:11:29.521Z,35.47
2023-02-16T20:13:57.686Z,34.25
2023-02-16T20:16:26.326Z,35.05
2023-02-16T20:18:56.890Z,32.67
2023-02-16T20:21:26.567Z,34.67
2023-02-16T20:23:57.631Z,34.60
2023-02-16T20:26:34.643Z,32.70
2023-02-16T20:29:04.063Z,34.95
2023-02-16T20:31:38.317Z,34.13
2023-02-16T20:34:06.687Z,34.28
2023-02-16T20:36:35.457Z,36.45
2023-02-16T20:39:04.467Z,33.08
2023-02-16T20:41:31.826Z,34.08
2023-02-16T20:43:59.100Z,35.63
2023-02-16T20:46:26.321Z,33.05
2023-02-16T20:48:54.036Z,36.03
2023-02-16T20:51:21.503Z,34.40
2023-02-16T20:53:49.269Z,35.83
2023-02-16T20:56:22.852Z,38.40
2023-02-16T20:58:52.369Z,35.42
2023-02-16T21:01:29.829Z,35.47
2023-02-16T21:03:58.740Z,34.03
2023-02-16T21:06:26.266Z,36.70
2023-02-16T21:08:53.630Z,35.10
2023-02-16T21:11:21.358Z,34.97
2023-02-16T21:13:49.072Z,36.25
2023-02-16T21:16:16.473Z,36.38
2023-02-16T21:18:44.569Z,36.53
2023-02-16T21:21:15.633Z,37.00
2023-02-16T21:26:11.843Z,36.22
2023-02-16T21:28:39.558Z,37.22
2023-02-16T21:31:13.890Z,36.95
2023-02-16T21:33:42.659Z,35.30
2023-02-16T21:36:12.605Z,36.70
2023-02-16T21:38:40.925Z,37.22
2023-02-16T21:41:25.449Z,39.28
2023-02-16T21:43:59.315Z,37.72
2023-02-16T21:46:28.167Z,37.70
2023-02-16T21:48:57.356Z,34.95
2023-02-16T21:51:32.113Z,38.40
2023-02-16T21:54:00.201Z,39.83
2023-02-16T21:56:45.518Z,37.97
2023-02-16T21:59:14.639Z,38.25
2023-02-16T22:01:47.863Z,40.00
2023-02-16T22:04:19.122Z,33.05
2023-02-16T22:06:48.847Z,35.15
2023-02-16T22:09:18.979Z,37.55
2023-02-16T22:11:46.786Z,36.30
2023-02-16T22:14:14.349Z,39.03
2023-02-16T22:16:43.906Z,37.25
2023-02-16T22:19:13.190Z,37.67
2023-02-16T22:21:42.218Z,40.90
2023-02-16T22:24:14.170Z,37.83
2023-02-16T22:29:09.414Z,38.60
2023-02-16T22:31:37.461Z,37.30
2023-02-16T22:34:13.548Z,39.25
2023-02-16T22:36:40.905Z,39.13
2023-02-16T22:39:08.447Z,38.50
2023-02-16T22:41:35.988Z,38.53
2023-02-16T22:44:03.371Z,37.58
2023-02-16T22:46:30.677Z,37.47
2023-02-16T22:48:59.047Z,35.72
2023-02-16T22:51:29.322Z,36.65
2023-02-16T22:54:01.081Z,38.43
2023-02-16T22:56:28.443Z,35.95
2023-02-16T22:58:57.791Z,38.83
2023-02-16T23:01:26.624Z,37.97
2023-02-16T23:03:58.787Z,37.95
2023-02-16T23:06:37.011Z,36.55
2023-02-16T23:09:08.905Z,38.50
2023-02-16T23:11:36.455Z,37.42
2023-02-16T23:14:04.626Z,37.17
2023-02-16T23:16:31.700Z,38.78
2023-02-16T23:19:00.179Z,36.13
2023-02-16T23:21:32.805Z,37.20
2023-02-16T23:24:00.640Z,37.80
2023-02-16T23:26:29.661Z,38.03
2023-02-16T23:29:01.488Z,36.40
2023-02-16T23:31:33.103Z,37.95
2023-02-16T23:34:02.471Z,38.55
2023-02-16T23:36:31.087Z,38.55
2023-02-16T23:39:12.141Z,39.25
2023-02-16T23:41:40.144Z,37.93
2023-02-16T23:44:08.137Z,36.00
2023-02-16T23:46:35.063Z,37.70
2023-02-16T23:49:02.791Z,36.35
2023-02-16T23:51:29.750Z,39.35
2023-02-16T23:53:57.013Z,37.97
2023-02-16T23:56:28.630Z,35.70
2023-02-16T23:58:59.254Z,37.85
